首页
METAR-TAF:

METAR-TAF

机场 :

墨西卡利, 墨西哥

纬度: 32-37-50N, 经度: 115-14-30W, 海拔: 22米

当前天气观测

该预报发布于1小时和11分钟前的04:43 UTC
风速5节,风向东南
温度 18°C
湿度 52%
气压 1007 hPa
能見度: 16.1公里
天空无云

METAR: MMML 020443Z 14005KT 10SM SKC 18/08 A2974

时间: 23:54 (05:54 UTC)

预报

该预报发布于1小时和15分钟前的04:39 UTC
预报有效从02日的 06点(UTC)到 03日的 06点(UTC)
风速5节,风向
能見度: 10公里
天空无云
从 02日的 1800点(UTC)
风速10节,风向西南
能見度: 10公里
散云层高于12000英尺
多云层高于25000英尺
从 03日的 0500点(UTC)
风速5节,风向西南
能見度: 10公里
天空无云

TAF: MMML 020439Z 0206/0306 17005KT P6SM SKC FM021800 23010KT P6SM SCT120 BKN250 FM030500 22005KT P6SM SKC

超过4000个机场的气象观测和天气预报(METAR&TAF报告)。

可查询的气象台以黄色和红色小点在地图上表示。

将鼠标移到小点上方,可查看气象台名称。

然后点击查看天气观测和预报。

如需切换地图:点击带黑十字的绿色按钮放大地图;点击带横线的绿色按钮缩小地图;或者点击绿色箭头查看邻近地区的地图。


METAR-TAF: